Time;durP1;ratioP1;P1;durP2;ratioP2;P2;SDS_P1;SDS_P2;PMS_P1;PMS_P2;Temp;Humidity;BMP_temperature;BMP_pressure;BME280_temperature;BME280_humidity;BME280_pressure;Samples;Min_cycle;Max_cycle;Signal;HPM_P1;HPM_P2
2022/06/18 00:00:46;;;;;;;8.73;5.65;;;21.90;99.90;;;;;;5105862;28;20426;-79
2022/06/18 00:03:11;;;;;;;9.70;5.57;;;21.90;99.90;;;;;;5091552;28;20775;-79
2022/06/18 00:05:39;;;;;;;7.25;5.10;;;21.70;99.90;;;;;;5094857;28;20442;-79
2022/06/18 00:08:11;;;;;;;9.13;5.65;;;21.50;99.90;;;;;;5109806;28;20475;-79
2022/06/18 00:10:37;;;;;;;8.35;5.50;;;21.40;99.90;;;;;;5109541;28;20419;-79
2022/06/18 00:16:01;;;;;;;8.43;5.70;;;21.30;99.90;;;;;;5107990;27;20408;-79
2022/06/18 00:18:27;;;;;;;7.67;5.80;;;21.40;99.90;;;;;;5109821;28;20512;-79
2022/06/18 00:20:53;;;;;;;8.18;5.35;;;21.60;99.90;;;;;;5108470;28;20486;-79
2022/06/18 00:23:19;;;;;;;10.85;6.10;;;21.30;99.90;;;;;;5109919;28;20423;-79
2022/06/18 00:25:49;;;;;;;10.00;6.15;;;21.30;99.90;;;;;;5092231;28;20954;-79
2022/06/18 00:28:23;;;;;;;9.10;6.32;;;21.30;99.90;;;;;;5093346;28;20430;-79
2022/06/18 00:30:50;;;;;;;9.32;6.50;;;21.40;99.90;;;;;;5089673;28;20461;-79
2022/06/18 00:33:16;;;;;;;9.20;5.93;;;21.30;99.90;;;;;;5083285;28;20417;-79
2022/06/18 00:35:43;;;;;;;11.77;6.72;;;21.30;99.90;;;;;;5052919;28;20415;-79
2022/06/18 00:38:22;;;;;;;9.32;6.43;;;21.10;99.90;;;;;;5087463;28;20475;-79
2022/06/18 00:40:48;;;;;;;12.80;7.10;;;21.50;99.90;;;;;;5086970;28;21177;-79
2022/06/18 00:43:28;;;;;;;8.43;6.55;;;21.50;99.90;;;;;;5073516;28;20460;-79
2022/06/18 00:46:03;;;;;;;9.82;6.80;;;21.20;99.90;;;;;;5071226;28;20479;-79
2022/06/18 00:48:47;;;;;;;9.35;7.20;;;21.10;99.90;;;;;;5066793;28;20994;-78
2022/06/18 00:51:20;;;;;;;9.82;6.72;;;21.30;99.90;;;;;;5077550;28;20424;-79
2022/06/18 00:53:51;;;;;;;9.93;6.80;;;21.00;99.90;;;;;;5104543;28;20407;-78
2022/06/18 00:56:22;;;;;;;10.40;6.83;;;21.20;99.90;;;;;;5082404;28;20410;-79
2022/06/18 00:58:58;;;;;;;11.27;6.97;;;21.00;99.90;;;;;;5089889;28;20418;-79
2022/06/18 01:01:33;;;;;;;11.60;7.07;;;21.00;99.90;;;;;;5073817;28;20426;-79
2022/06/18 01:03:59;;;;;;;9.45;7.28;;;20.80;99.90;;;;;;5088293;28;20425;-79
2022/06/18 01:06:30;;;;;;;10.45;7.20;;;20.90;99.90;;;;;;5073406;28;20417;-79
2022/06/18 01:09:10;;;;;;;10.80;7.28;;;21.00;99.90;;;;;;5090836;28;20449;-79
2022/06/18 01:11:38;;;;;;;10.40;7.20;;;21.00;99.90;;;;;;5087937;28;20417;-79
2022/06/18 01:14:07;;;;;;;9.70;7.47;;;20.90;99.90;;;;;;5070565;28;20454;-79
2022/06/18 01:16:33;;;;;;;12.32;7.65;;;20.90;99.90;;;;;;5067489;28;20986;-79
2022/06/18 01:19:00;;;;;;;11.65;7.55;;;21.00;99.90;;;;;;5074227;28;20394;-79
2022/06/18 01:21:42;;;;;;;10.35;7.47;;;21.00;99.90;;;;;;5073012;28;20441;-79
2022/06/18 01:24:22;;;;;;;9.68;7.40;;;21.00;99.90;;;;;;5086242;28;20471;-79
2022/06/18 01:26:53;;;;;;;12.52;7.97;;;20.90;99.90;;;;;;5089813;27;20433;-79
2022/06/18 01:29:20;;;;;;;10.75;7.18;;;21.10;99.90;;;;;;5094511;27;20419;-79
2022/06/18 01:31:47;;;;;;;12.02;8.15;;;21.00;99.90;;;;;;5113174;27;20410;-79
2022/06/18 01:34:14;;;;;;;10.40;7.70;;;21.00;99.90;;;;;;5108704;27;20842;-79
2022/06/18 01:36:41;;;;;;;12.98;7.95;;;21.00;99.90;;;;;;5126356;27;20410;-79
2022/06/18 01:39:13;;;;;;;10.80;7.65;;;20.90;99.90;;;;;;5111147;27;20418;-79
2022/06/18 01:41:59;;;;;;;11.27;7.93;;;20.90;99.90;;;;;;5096264;27;20422;-80
2022/06/18 01:44:28;;;;;;;10.80;7.72;;;20.90;99.90;;;;;;5107990;27;20425;-79
2022/06/18 01:47:05;;;;;;;13.35;8.50;;;20.90;99.90;;;;;;5110148;27;20422;-80
2022/06/18 01:49:53;;;;;;;10.07;8.13;;;20.80;99.90;;;;;;5113525;27;20423;-80
2022/06/18 01:52:23;;;;;;;11.40;8.70;;;20.80;99.90;;;;;;5109337;27;20909;-79
2022/06/18 01:54:53;;;;;;;13.07;8.60;;;20.70;99.90;;;;;;5112470;27;20474;-79
2022/06/18 01:57:29;;;;;;;13.93;9.10;;;20.70;99.90;;;;;;5093601;27;20418;-79
2022/06/18 02:00:02;;;;;;;12.60;9.02;;;20.50;99.90;;;;;;5092193;27;20501;-79
2022/06/18 02:02:27;;;;;;;11.75;9.02;;;20.60;99.90;;;;;;5108781;27;20509;-79
2022/06/18 02:04:53;;;;;;;14.15;9.57;;;20.40;99.90;;;;;;5112331;27;20509;-79
2022/06/18 02:07:20;;;;;;;13.03;9.53;;;20.30;99.90;;;;;;5143687;27;20410;-79
2022/06/18 02:10:10;;;;;;;12.55;9.50;;;20.50;99.90;;;;;;5126725;27;20440;-79
2022/06/18 02:12:39;;;;;;;12.10;9.63;;;20.50;99.90;;;;;;5105372;27;20907;-79
2022/06/18 02:15:29;;;;;;;12.70;9.77;;;20.30;99.90;;;;;;5085150;28;20409;-79
2022/06/18 02:17:59;;;;;;;16.77;9.93;;;20.10;99.90;;;;;;5108983;27;20423;-79
2022/06/18 02:20:28;;;;;;;11.82;10.20;;;20.10;99.90;;;;;;5113048;27;20426;-79
2022/06/18 02:22:56;;;;;;;12.65;10.07;;;20.20;99.90;;;;;;5110569;27;20446;-79
2022/06/18 02:25:25;;;;;;;16.60;10.93;;;20.10;99.90;;;;;;5112628;27;20418;-79
2022/06/18 02:27:56;;;;;;;14.40;10.93;;;20.10;99.90;;;;;;5111359;28;20517;-79
2022/06/18 02:30:26;;;;;;;12.35;11.02;;;20.00;99.90;;;;;;5111840;28;20467;-79
2022/06/18 02:33:28;;;;;;;15.57;11.15;;;19.90;99.90;;;;;;5109397;28;20471;-79
2022/06/18 02:35:55;;;;;;;16.25;10.88;;;19.90;99.90;;;;;;5111995;28;20414;-79
2022/06/18 02:38:22;;;;;;;12.80;10.73;;;20.00;99.90;;;;;;5112466;27;20556;-79
2022/06/18 02:40:48;;;;;;;14.00;10.97;;;19.80;99.90;;;;;;5093764;28;20439;-79
2022/06/18 02:43:17;;;;;;;14.52;11.15;;;19.70;99.90;;;;;;5108096;28;20785;-79
2022/06/18 02:45:45;;;;;;;14.05;11.45;;;19.90;99.90;;;;;;5112202;28;22182;-79
2022/06/18 02:48:11;;;;;;;15.70;11.65;;;19.80;99.90;;;;;;5145161;27;20414;-79
2022/06/18 02:50:38;;;;;;;15.13;11.25;;;;;;;;;;5110008;28;20439;-79
2022/06/18 02:53:05;;;;;;;18.08;11.57;;;;;;;;;;5088019;28;20427;-79
2022/06/18 02:55:36;;;;;;;17.00;12.00;;;19.40;99.90;;;;;;5108038;28;20943;-80
2022/06/18 02:58:11;;;;;;;17.25;11.88;;;19.30;99.90;;;;;;5110028;28;21166;-80
2022/06/18 03:00:39;;;;;;;17.58;12.70;;;19.00;99.90;;;;;;5112437;28;20947;-79
2022/06/18 03:03:10;;;;;;;17.65;12.85;;;19.40;99.90;;;;;;5096320;28;20399;-79
2022/06/18 03:05:37;;;;;;;16.77;12.95;;;19.20;99.90;;;;;;5108410;28;20922;-79
2022/06/18 03:08:04;;;;;;;17.48;13.23;;;19.10;99.90;;;;;;5099529;28;20434;-79
2022/06/18 03:13:18;;;;;;;24.20;13.40;;;;;;;;;;5115420;27;20441;-79
2022/06/18 03:15:45;;;;;;;20.23;14.43;;;;;;;;;;5116867;27;20414;-79
2022/06/18 03:18:11;;;;;;;20.33;14.15;;;18.90;99.90;;;;;;5094566;27;20414;-79
2022/06/18 03:20:45;;;;;;;21.30;14.85;;;18.90;99.90;;;;;;5097688;27;20422;-79
2022/06/18 03:23:16;;;;;;;21.52;14.45;;;18.80;99.90;;;;;;5112549;27;20747;-79
2022/06/18 03:25:42;;;;;;;26.80;15.30;;;18.90;99.90;;;;;;5131267;27;20426;-79
2022/06/18 03:28:11;;;;;;;25.27;15.20;;;18.90;99.90;;;;;;5095892;27;20786;-79
2022/06/18 03:30:39;;;;;;;21.95;14.60;;;;;;;;;;5112693;27;20959;-80
2022/06/18 03:33:05;;;;;;;23.67;15.73;;;18.60;99.90;;;;;;5113986;27;20422;-80
2022/06/18 03:35:31;;;;;;;21.33;16.17;;;18.70;99.90;;;;;;5097896;27;20544;-79
2022/06/18 03:37:57;;;;;;;23.98;16.30;;;18.80;99.90;;;;;;5143309;27;20426;-79
2022/06/18 03:40:24;;;;;;;23.37;17.27;;;18.30;99.90;;;;;;5096603;27;20808;-79
2022/06/18 03:42:51;;;;;;;29.55;17.60;;;18.40;99.90;;;;;;5114795;27;20418;-79
2022/06/18 03:45:17;;;;;;;24.65;16.90;;;18.50;99.90;;;;;;5116333;27;20768;-78
2022/06/18 03:47:43;;;;;;;24.05;16.88;;;18.50;99.90;;;;;;5113967;27;20414;-79
2022/06/18 03:50:15;;;;;;;25.43;16.50;;;18.40;99.90;;;;;;5146344;27;20500;-79
2022/06/18 03:52:41;;;;;;;22.05;16.42;;;18.40;99.90;;;;;;5113356;27;20471;-79
2022/06/18 03:55:08;;;;;;;25.67;16.75;;;18.50;99.90;;;;;;5128906;27;20540;-79
2022/06/18 03:57:34;;;;;;;28.35;18.13;;;;;;;;;;5116225;27;20543;-79
2022/06/18 04:00:00;;;;;;;27.10;17.83;;;;;;;;;;5111714;27;20765;-79
2022/06/18 04:02:26;;;;;;;23.63;17.50;;;18.30;99.90;;;;;;5093025;27;20414;-78
2022/06/18 04:04:52;;;;;;;30.03;17.70;;;;;;;;;;5080636;27;20414;-79
2022/06/18 04:07:22;;;;;;;25.67;17.90;;;18.30;99.90;;;;;;5093459;27;20937;-79
2022/06/18 04:09:50;;;;;;;29.92;18.05;;;18.30;99.90;;;;;;5110148;27;20419;-79
2022/06/18 04:12:17;;;;;;;27.42;18.73;;;18.20;99.90;;;;;;5098707;27;20479;-79
2022/06/18 04:14:44;;;;;;;26.30;18.23;;;18.20;99.90;;;;;;5094001;27;20443;-79
2022/06/18 04:17:15;;;;;;;27.80;19.05;;;18.30;99.90;;;;;;5113030;27;20501;-79
2022/06/18 04:19:42;;;;;;;31.53;18.93;;;;;;;;;;5093877;27;20514;-78
2022/06/18 04:22:08;;;;;;;32.63;19.35;;;;;;;;;;5111107;27;20414;-79
2022/06/18 04:24:34;;;;;;;29.00;19.83;;;;;;;;;;5113514;27;20471;-79
2022/06/18 04:27:01;;;;;;;28.05;20.25;;;18.40;99.90;;;;;;5107154;28;20432;-79
2022/06/18 04:29:28;;;;;;;28.70;19.67;;;18.20;99.90;;;;;;5109241;27;20419;-78
2022/06/18 04:31:54;;;;;;;28.60;20.45;;;18.20;99.90;;;;;;5092866;27;20502;-79
2022/06/18 04:34:20;;;;;;;31.13;20.10;;;;;;;;;;5094226;27;20505;-79
2022/06/18 04:36:46;;;;;;;29.92;20.38;;;18.00;99.90;;;;;;5115341;27;20411;-79
2022/06/18 04:39:13;;;;;;;29.30;19.88;;;18.30;99.90;;;;;;5093044;27;20419;-79
2022/06/18 04:41:39;;;;;;;29.85;19.63;;;;;;;;;;5096620;27;20471;-79
2022/06/18 04:44:05;;;;;;;32.55;20.55;;;;;;;;;;5097468;27;20398;-79
2022/06/18 04:46:31;;;;;;;30.52;20.30;;;18.20;99.90;;;;;;5112228;27;20441;-79
2022/06/18 04:48:57;;;;;;;29.10;19.25;;;18.30;99.90;;;;;;5112893;27;20475;-79
2022/06/18 04:51:23;;;;;;;31.87;19.67;;;18.00;99.90;;;;;;5105214;27;20422;-80
2022/06/18 04:53:49;;;;;;;33.73;20.77;;;;;;;;;;5136946;27;20512;-79
2022/06/18 04:56:15;;;;;;;31.85;20.00;;;18.10;99.90;;;;;;5108864;27;20450;-79
2022/06/18 04:58:41;;;;;;;27.63;20.15;;;18.50;99.90;;;;;;5095286;27;20458;-79
2022/06/18 05:01:07;;;;;;;31.20;20.33;;;;;;;;;;5088114;27;20755;-79
2022/06/18 05:03:33;;;;;;;32.08;20.10;;;;;;;;;;5114459;27;20419;-79
2022/06/18 05:05:59;;;;;;;32.95;20.40;;;18.10;99.90;;;;;;5112015;27;20414;-79
2022/06/18 05:08:25;;;;;;;27.43;20.00;;;18.20;99.90;;;;;;5113078;27;20464;-78
2022/06/18 05:10:52;;;;;;;33.28;21.27;;;;;;;;;;5091456;27;20420;-78
2022/06/18 05:13:18;;;;;;;33.30;21.67;;;18.40;99.90;;;;;;5108609;28;20497;-79
2022/06/18 05:15:45;;;;;;;30.30;21.33;;;18.00;99.90;;;;;;5089134;27;20808;-79
2022/06/18 05:18:16;;;;;;;29.43;21.70;;;18.50;99.90;;;;;;5096634;27;20414;-79
2022/06/18 05:20:43;;;;;;;34.22;20.88;;;;;;;;;;5096660;27;20422;-79
2022/06/18 05:23:13;;;;;;;32.40;22.47;;;18.20;99.90;;;;;;5094327;27;20430;-78
2022/06/18 05:25:39;;;;;;;33.25;21.77;;;;;;;;;;5096617;27;20415;-78
2022/06/18 05:28:06;;;;;;;37.17;21.87;;;;;;;;;;5109741;27;20921;-78
2022/06/18 05:30:32;;;;;;;34.65;21.63;;;18.20;99.90;;;;;;5113665;27;20421;-78
2022/06/18 05:32:58;;;;;;;33.65;22.40;;;;;;;;;;5108454;27;20411;-78
2022/06/18 05:35:24;;;;;;;30.07;21.90;;;;;;;;;;5114363;27;20915;-77
2022/06/18 05:37:50;;;;;;;29.67;21.90;;;18.40;99.90;;;;;;5095129;27;20869;-77
2022/06/18 05:40:17;;;;;;;30.55;21.52;;;18.60;99.90;;;;;;5110099;27;20495;-77
2022/06/18 05:42:43;;;;;;;33.73;21.27;;;18.30;99.90;;;;;;5086612;27;20426;-77
2022/06/18 05:45:10;;;;;;;30.57;21.73;;;18.70;99.90;;;;;;5128762;27;20433;-78
2022/06/18 05:47:36;;;;;;;32.22;21.35;;;18.80;99.90;;;;;;5095218;27;20422;-77
2022/06/18 05:50:03;;;;;;;29.92;20.70;;;19.00;99.90;;;;;;5112174;27;20420;-77
2022/06/18 05:52:29;;;;;;;29.48;20.75;;;18.90;99.90;;;;;;5096186;27;20511;-78
2022/06/18 05:54:56;;;;;;;34.53;21.13;;;18.90;99.90;;;;;;5092377;27;20789;-78
2022/06/18 05:57:22;;;;;;;31.23;20.67;;;19.20;99.90;;;;;;5109077;27;20422;-77
2022/06/18 05:59:49;;;;;;;33.58;19.95;;;19.20;99.90;;;;;;5109402;27;20851;-77
2022/06/18 06:02:16;;;;;;;28.20;19.42;;;19.50;99.90;;;;;;5111799;27;20488;-77
2022/06/18 06:04:42;;;;;;;32.40;19.10;;;19.40;99.90;;;;;;5105572;28;20451;-77
2022/06/18 06:07:16;;;;;;;28.05;17.75;;;;;;;;;;5095078;27;20418;-77
2022/06/18 06:12:26;;;;;;;24.55;16.35;;;19.60;99.90;;;;;;5129274;27;20418;-77
2022/06/18 06:14:52;;;;;;;22.83;16.37;;;19.60;99.90;;;;;;5094608;27;20488;-77
2022/06/18 06:17:23;;;;;;;24.97;15.20;;;19.80;99.90;;;;;;5110727;27;20462;-77
2022/06/18 06:19:49;;;;;;;25.02;17.48;;;19.90;99.90;;;;;;5112073;27;20932;-78
2022/06/18 06:22:14;;;;;;;21.70;15.50;;;20.00;99.90;;;;;;5088714;28;20412;-78
2022/06/18 06:24:41;;;;;;;19.87;14.03;;;20.10;99.90;;;;;;5108430;27;21076;-77
2022/06/18 06:27:08;;;;;;;20.50;11.60;;;20.10;99.90;;;;;;5110731;27;20419;-77
2022/06/18 06:29:34;;;;;;;18.00;12.27;;;20.00;99.90;;;;;;5109288;28;20419;-77
2022/06/18 06:32:00;;;;;;;18.90;10.90;;;20.60;99.90;;;;;;5104512;28;20530;-78
2022/06/18 06:34:25;;;;;;;18.90;10.63;;;20.30;99.90;;;;;;5094227;28;20448;-77
2022/06/18 06:36:51;;;;;;;14.77;9.90;;;20.60;99.90;;;;;;5145908;27;20425;-78
2022/06/18 06:39:17;;;;;;;19.90;9.67;;;20.80;99.90;;;;;;5092056;27;20422;-77
2022/06/18 06:41:44;;;;;;;15.43;8.00;;;20.80;99.90;;;;;;5105185;27;20493;-77
2022/06/18 06:44:10;;;;;;;14.40;8.32;;;20.90;99.90;;;;;;5096256;27;20761;-77
2022/06/18 06:46:36;;;;;;;15.93;8.27;;;21.20;99.90;;;;;;5115304;27;20414;-77
2022/06/18 06:49:02;;;;;;;11.67;8.10;;;21.20;99.90;;;;;;5116544;27;21139;-77
2022/06/18 06:51:31;;;;;;;15.70;8.45;;;21.10;99.90;;;;;;5098990;27;20453;-78
2022/06/18 06:53:57;;;;;;;17.13;8.47;;;21.20;99.90;;;;;;5113831;27;20426;-77
2022/06/18 06:59:09;;;;;;;17.33;9.00;;;21.40;99.90;;;;;;5115317;27;20786;-79
2022/06/18 07:01:36;;;;;;;18.42;9.75;;;21.60;99.90;;;;;;5108674;27;20453;-78
2022/06/18 07:04:04;;;;;;;16.33;8.57;;;21.40;99.90;;;;;;5091114;28;20427;-78
2022/06/18 07:06:30;;;;;;;14.93;8.57;;;21.60;99.90;;;;;;5109501;27;20420;-78
2022/06/18 07:08:56;;;;;;;14.63;9.00;;;21.20;99.90;;;;;;5114180;27;20414;-78
2022/06/18 07:11:22;;;;;;;14.70;8.87;;;21.10;99.90;;;;;;5112711;27;20441;-78
2022/06/18 07:13:47;;;;;;;18.13;9.17;;;21.20;99.90;;;;;;5117296;27;20397;-78
2022/06/18 07:16:15;;;;;;;16.97;8.80;;;21.20;99.90;;;;;;5100002;27;20414;-78
2022/06/18 07:18:41;;;;;;;14.43;8.40;;;21.30;99.90;;;;;;5117696;27;20795;-78
2022/06/18 07:21:11;;;;;;;14.48;8.52;;;21.50;99.90;;;;;;5112888;27;20488;-78
2022/06/18 07:23:37;;;;;;;13.70;8.77;;;21.90;99.90;;;;;;5097473;27;20789;-78
2022/06/18 07:26:03;;;;;;;12.93;8.25;;;21.70;99.90;;;;;;5109317;27;20472;-78
2022/06/18 07:28:29;;;;;;;14.93;8.90;;;21.70;99.90;;;;;;5094680;27;20544;-78
2022/06/18 07:30:55;;;;;;;14.83;8.93;;;21.70;99.90;;;;;;5108906;27;20461;-78
2022/06/18 07:33:24;;;;;;;14.90;8.10;;;21.70;99.90;;;;;;5113302;27;20545;-78
2022/06/18 07:35:50;;;;;;;13.30;7.75;;;22.20;99.90;;;;;;5107216;27;20407;-78
2022/06/18 07:38:16;;;;;;;15.95;8.38;;;22.20;99.90;;;;;;5114089;27;20505;-78
2022/06/18 07:40:54;;;;;;;14.67;7.70;;;21.90;99.90;;;;;;5109495;27;20434;-78
2022/06/18 07:43:28;;;;;;;14.73;7.65;;;22.20;99.90;;;;;;5114328;27;20482;-77
2022/06/18 07:45:54;;;;;;;15.77;7.60;;;22.30;99.90;;;;;;5103260;27;20415;-77
2022/06/18 07:48:20;;;;;;;12.40;7.40;;;22.40;99.90;;;;;;5111852;27;20421;-78
2022/06/18 07:50:46;;;;;;;11.43;7.03;;;22.10;99.90;;;;;;5109047;27;20464;-78
2022/06/18 07:53:21;;;;;;;10.20;6.00;;;22.30;99.90;;;;;;5080480;27;20426;-77
2022/06/18 07:55:47;;;;;;;9.93;5.10;;;22.50;99.90;;;;;;5098488;27;20449;-78
2022/06/18 07:58:13;;;;;;;10.90;5.43;;;22.50;99.90;;;;;;5098093;27;20814;-78
2022/06/18 08:00:40;;;;;;;11.73;5.90;;;23.00;99.90;;;;;;5113143;27;20431;-78
2022/06/18 08:03:07;;;;;;;11.68;5.50;;;22.70;99.90;;;;;;5129020;27;20436;-78
2022/06/18 08:05:33;;;;;;;10.63;6.50;;;22.80;99.90;;;;;;5113811;27;20570;-78
2022/06/18 08:07:59;;;;;;;9.97;6.03;;;22.90;99.90;;;;;;5095652;27;20445;-78
2022/06/18 08:10:24;;;;;;;14.45;5.47;;;22.70;99.90;;;;;;5095649;27;20442;-77
2022/06/18 08:12:51;;;;;;;12.60;5.70;;;22.90;99.90;;;;;;5093677;27;20422;-77
2022/06/18 08:15:18;;;;;;;11.30;5.10;;;22.90;99.90;;;;;;5105397;27;20421;-78
2022/06/18 08:17:44;;;;;;;12.83;4.90;;;23.00;99.90;;;;;;5112733;27;20414;-78
2022/06/18 08:20:11;;;;;;;8.40;4.50;;;23.20;99.90;;;;;;5114075;27;20421;-78
2022/06/18 08:22:40;;;;;;;9.60;4.55;;;22.90;99.90;;;;;;5107214;27;20753;-77
2022/06/18 08:25:08;;;;;;;9.02;4.47;;;23.20;99.90;;;;;;5123834;27;20414;-78
2022/06/18 08:27:35;;;;;;;7.45;4.00;;;23.30;99.90;;;;;;5110860;27;20915;-78
2022/06/18 08:30:01;;;;;;;9.63;4.33;;;23.70;99.90;;;;;;5110054;28;20500;-78
2022/06/18 08:32:26;;;;;;;7.00;4.03;;;23.50;99.90;;;;;;5092398;28;20402;-77
2022/06/18 08:34:52;;;;;;;6.70;3.90;;;23.10;99.90;;;;;;5111332;27;20560;-77
2022/06/18 08:37:18;;;;;;;10.57;4.22;;;23.20;99.90;;;;;;5070770;28;20466;-77
2022/06/18 08:39:44;;;;;;;7.97;4.13;;;22.90;99.90;;;;;;5087322;28;20429;-78
2022/06/18 08:42:32;;;;;;;10.13;3.83;;;22.90;99.90;;;;;;5088937;28;20455;-78
2022/06/18 08:45:08;;;;;;;5.97;3.20;;;23.40;99.90;;;;;;5106294;28;20420;-78
2022/06/18 08:48:02;;;;;;;7.45;3.20;;;23.30;99.90;;;;;;5110331;27;20456;-77
2022/06/18 08:50:59;;;;;;;7.00;3.10;;;23.20;99.90;;;;;;5102509;28;20416;-77
2022/06/18 08:53:45;;;;;;;6.53;3.20;;;23.40;99.90;;;;;;5086450;28;20805;-77
2022/06/18 08:56:18;;;;;;;9.43;3.30;;;23.50;99.90;;;;;;5135835;27;20450;-77
2022/06/18 08:59:04;;;;;;;6.28;2.80;;;23.40;99.90;;;;;;5113164;28;20914;-77
2022/06/18 09:01:37;;;;;;;5.75;2.55;;;23.50;99.90;;;;;;5100648;28;20412;-77
2022/06/18 09:04:45;;;;;;;7.00;2.67;;;23.50;99.90;;;;;;5107320;28;20968;-76
2022/06/18 09:07:51;;;;;;;5.47;2.13;;;23.50;99.90;;;;;;5102603;28;20416;-78
2022/06/18 09:10:39;;;;;;;3.72;2.15;;;23.70;99.90;;;;;;5103284;28;20400;-77
2022/06/18 09:13:12;;;;;;;5.70;2.20;;;23.50;99.90;;;;;;5109639;28;20444;-77
2022/06/18 09:15:42;;;;;;;5.53;2.07;;;23.50;99.90;;;;;;5112320;28;20392;-77
2022/06/18 09:18:18;;;;;;;5.30;2.47;;;23.40;99.90;;;;;;5097389;28;20495;-77
2022/06/18 09:20:51;;;;;;;4.40;1.95;;;23.50;99.90;;;;;;5111379;28;20437;-77
2022/06/18 09:23:24;;;;;;;6.18;2.22;;;23.60;99.90;;;;;;5107754;28;20416;-77
2022/06/18 09:25:52;;;;;;;6.13;2.42;;;23.70;99.90;;;;;;5111809;28;20405;-77
2022/06/18 09:28:39;;;;;;;4.75;2.42;;;23.90;99.90;;;;;;5081925;28;20426;-78
2022/06/18 09:31:15;;;;;;;6.47;2.50;;;24.00;99.90;;;;;;5089858;28;20418;-78
2022/06/18 09:34:19;;;;;;;4.40;2.50;;;24.10;99.90;;;;;;5080991;28;20461;-78
2022/06/18 09:36:48;;;;;;;8.32;3.00;;;24.10;99.90;;;;;;5089621;28;21543;-78
2022/06/18 09:39:35;;;;;;;5.45;2.83;;;24.10;99.90;;;;;;5091309;28;20950;-77
2022/06/18 09:42:11;;;;;;;5.57;2.80;;;24.10;99.90;;;;;;5087856;28;20789;-78
2022/06/18 09:45:00;;;;;;;6.10;2.72;;;24.20;99.90;;;;;;5091231;28;20444;-78
2022/06/18 09:47:35;;;;;;;5.88;2.83;;;24.10;99.90;;;;;;5088497;28;20454;-77
2022/06/18 09:50:02;;;;;;;5.00;2.83;;;24.00;99.90;;;;;;5073275;28;20416;-77
2022/06/18 09:52:33;;;;;;;5.28;2.60;;;24.10;99.90;;;;;;5120531;27;20588;-78
2022/06/18 09:55:07;;;;;;;4.90;2.30;;;24.10;99.90;;;;;;5090421;28;20432;-78
2022/06/18 09:57:37;;;;;;;4.72;2.00;;;24.20;99.90;;;;;;5070446;28;20425;-79
2022/06/18 10:00:17;;;;;;;5.05;2.17;;;24.40;99.90;;;;;;5074164;28;20779;-79
2022/06/18 10:02:57;;;;;;;5.05;1.98;;;24.30;99.90;;;;;;5071545;28;20465;-78
2022/06/18 10:08:13;;;;;;;5.67;2.97;;;24.10;99.90;;;;;;5089548;28;20858;-78
2022/06/18 10:10:46;;;;;;;3.80;1.83;;;24.00;99.90;;;;;;5089500;28;20401;-78
2022/06/18 10:13:18;;;;;;;4.88;1.80;;;24.60;99.90;;;;;;5085636;28;20426;-78
2022/06/18 10:15:44;;;;;;;5.18;2.00;;;24.80;99.90;;;;;;5094841;28;20416;-79
2022/06/18 10:18:28;;;;;;;5.18;1.95;;;24.80;99.90;;;;;;5088198;28;20417;-78
2022/06/18 10:21:10;;;;;;;5.63;1.83;;;25.00;99.90;;;;;;5082410;28;20394;-78
2022/06/18 10:23:55;;;;;;;3.83;1.98;;;25.20;99.90;;;;;;5066764;28;20761;-79
2022/06/18 10:26:39;;;;;;;5.65;2.00;;;25.00;99.90;;;;;;5066079;28;20800;-78
2022/06/18 10:29:12;;;;;;;4.55;1.70;;;24.90;99.90;;;;;;5084679;28;20430;-78
2022/06/18 10:31:55;;;;;;;4.05;1.80;;;25.00;99.90;;;;;;5089262;28;21205;-79
2022/06/18 10:34:45;;;;;;;3.22;1.90;;;25.40;99.90;;;;;;5090240;28;20398;-79
2022/06/18 10:37:23;;;;;;;4.43;1.80;;;25.40;99.90;;;;;;5065406;28;20414;-79
2022/06/18 10:40:13;;;;;;;3.58;1.90;;;25.50;99.90;;;;;;5085766;28;20482;-79
2022/06/18 10:43:02;;;;;;;4.15;1.77;;;25.60;99.90;;;;;;5055411;28;20423;-79
2022/06/18 10:45:42;;;;;;;4.27;2.10;;;25.60;99.90;;;;;;5088771;28;20505;-79
2022/06/18 10:48:22;;;;;;;6.07;1.90;;;25.30;99.90;;;;;;5089249;28;20964;-79
2022/06/18 10:50:54;;;;;;;4.20;1.98;;;25.10;99.90;;;;;;5081203;28;20847;-79
2022/06/18 10:53:23;;;;;;;4.38;1.70;;;26.50;99.90;;;;;;5090294;28;20425;-79
2022/06/18 10:55:59;;;;;;;4.05;1.70;;;25.20;99.90;;;;;;5084084;28;20418;-79
2022/06/18 10:58:25;;;;;;;4.68;2.10;;;25.60;99.90;;;;;;5083315;28;20457;-79
2022/06/18 11:01:01;;;;;;;5.97;2.13;;;25.70;99.90;;;;;;5084747;28;20440;-80
2022/06/18 11:03:30;;;;;;;5.18;1.90;;;25.70;99.90;;;;;;5077065;28;20503;-80
2022/06/18 11:05:57;;;;;;;4.40;1.80;;;25.90;99.90;;;;;;5088393;28;20449;-80
2022/06/18 11:08:28;;;;;;;4.47;2.00;;;25.80;99.90;;;;;;5083555;28;20424;-79
2022/06/18 11:10:56;;;;;;;5.47;2.13;;;26.00;99.90;;;;;;5090851;28;20418;-79
2022/06/18 11:13:28;;;;;;;4.35;2.10;;;26.00;99.90;;;;;;5057886;28;20419;-79
2022/06/18 11:16:12;;;;;;;4.07;1.90;;;26.00;99.90;;;;;;5090262;28;20405;-78
2022/06/18 11:18:46;;;;;;;3.90;1.90;;;25.90;99.90;;;;;;5121630;28;20773;-80
2022/06/18 11:21:25;;;;;;;4.57;1.95;;;25.90;99.90;;;;;;5081508;28;20425;-78
2022/06/18 11:24:05;;;;;;;4.28;1.60;;;25.90;99.90;;;;;;5087066;28;20742;-78
2022/06/18 11:26:32;;;;;;;3.65;1.65;;;26.00;99.90;;;;;;5081032;28;20785;-77
2022/06/18 11:29:30;;;;;;;3.72;2.03;;;26.00;99.90;;;;;;5087271;28;20429;-78
2022/06/18 11:31:59;;;;;;;4.35;2.00;;;25.80;99.90;;;;;;5088735;28;20474;-78
2022/06/18 11:34:35;;;;;;;5.15;1.95;;;25.60;99.90;;;;;;5121826;27;20471;-76
2022/06/18 11:37:10;;;;;;;4.20;1.70;;;25.40;99.90;;;;;;5088051;28;20413;-77
2022/06/18 11:39:39;;;;;;;5.00;1.80;;;25.60;99.90;;;;;;5070198;28;20913;-77
2022/06/18 11:42:26;;;;;;;5.27;1.90;;;25.70;99.90;;;;;;5093243;28;20409;-77
2022/06/18 11:45:19;;;;;;;3.80;1.60;;;25.20;99.90;;;;;;5068826;28;20424;-77
2022/06/18 11:48:14;;;;;;;4.43;1.60;;;25.70;99.90;;;;;;5090888;28;20430;-77
2022/06/18 11:51:06;;;;;;;2.83;1.40;;;25.80;99.90;;;;;;5057766;28;20422;-77
2022/06/18 11:53:46;;;;;;;3.85;1.60;;;26.70;99.90;;;;;;5076981;28;20401;-77
2022/06/18 11:56:30;;;;;;;3.45;1.60;;;26.40;99.90;;;;;;5091224;28;20414;-77
2022/06/18 11:59:20;;;;;;;6.57;1.83;;;26.10;99.90;;;;;;5103867;28;20424;-77
2022/06/18 12:02:00;;;;;;;4.90;1.63;;;26.20;99.90;;;;;;5069577;28;20490;-77
2022/06/18 12:04:37;;;;;;;3.00;1.50;;;26.30;99.90;;;;;;5090794;28;20437;-78
2022/06/18 12:07:21;;;;;;;3.58;1.63;;;26.60;99.90;;;;;;5087425;28;20414;-79
2022/06/18 12:09:47;;;;;;;3.65;1.50;;;26.70;99.90;;;;;;5088288;28;20897;-79
2022/06/18 12:12:22;;;;;;;5.30;1.90;;;26.80;99.90;;;;;;5077993;28;20426;-78
2022/06/18 12:14:59;;;;;;;4.43;1.63;;;26.80;99.90;;;;;;5073229;28;22062;-78
2022/06/18 12:17:34;;;;;;;4.28;1.45;;;26.60;99.90;;;;;;5081306;28;20915;-79
2022/06/18 12:20:25;;;;;;;2.60;1.50;;;26.70;99.90;;;;;;5090404;28;21059;-78
2022/06/18 12:23:13;;;;;;;4.40;1.63;;;26.80;99.90;;;;;;5087709;28;20417;-78
2022/06/18 12:25:43;;;;;;;2.88;1.35;;;26.60;99.90;;;;;;5070290;28;20423;-78
2022/06/18 12:28:37;;;;;;;4.50;1.63;;;26.20;99.90;;;;;;5094696;28;20426;-79
2022/06/18 12:31:23;;;;;;;4.37;1.70;;;25.80;99.90;;;;;;5074832;28;20425;-79
2022/06/18 12:34:12;;;;;;;5.60;1.50;;;25.50;99.90;;;;;;5083950;28;20419;-79
2022/06/18 12:36:50;;;;;;;5.15;1.70;;;25.10;99.90;;;;;;5073942;28;20417;-80
2022/06/18 12:39:15;;;;;;;4.60;1.60;;;24.70;99.90;;;;;;5085505;28;20432;-80
2022/06/18 12:42:01;;;;;;;5.40;1.50;;;24.60;99.90;;;;;;5090968;28;20943;-80
2022/06/18 12:44:33;;;;;;;5.28;1.58;;;24.60;99.90;;;;;;5087300;28;20818;-80
2022/06/18 12:47:02;;;;;;;4.82;1.63;;;24.70;99.90;;;;;;5091939;28;20924;-80
2022/06/18 12:49:34;;;;;;;4.60;1.70;;;24.90;99.90;;;;;;5083707;28;20433;-80
2022/06/18 12:52:27;;;;;;;3.67;1.58;;;25.50;99.90;;;;;;5074584;28;20916;-79
2022/06/18 12:55:16;;;;;;;5.45;1.77;;;25.40;99.90;;;;;;5122708;27;20418;-80
2022/06/18 12:58:09;;;;;;;5.23;1.60;;;25.20;99.90;;;;;;5079986;28;20452;-80
2022/06/18 13:00:49;;;;;;;4.93;1.70;;;25.00;99.90;;;;;;5084157;28;20511;-80
2022/06/18 13:03:30;;;;;;;5.00;1.75;;;26.90;99.90;;;;;;5090661;28;20409;-80
2022/06/18 13:06:11;;;;;;;6.22;1.90;;;24.70;99.90;;;;;;5087575;28;20505;-80
2022/06/18 13:09:00;;;;;;;4.72;1.77;;;24.60;99.90;;;;;;5090305;28;20426;-80
2022/06/18 13:11:34;;;;;;;6.15;1.70;;;24.70;99.90;;;;;;5123316;27;20440;-80
2022/06/18 13:14:18;;;;;;;8.18;1.90;;;24.50;99.90;;;;;;5088851;28;20429;-80
2022/06/18 13:17:12;;;;;;;5.63;1.67;;;24.30;99.90;;;;;;5078278;28;20416;-79
2022/06/18 13:19:44;;;;;;;6.82;1.70;;;24.50;99.90;;;;;;5079751;28;20430;-80
2022/06/18 13:22:11;;;;;;;6.07;1.67;;;24.80;99.90;;;;;;5074779;28;20480;-80
2022/06/18 13:30:47;;;;;;;6.32;1.70;;;24.30;99.90;;;;;;5120021;27;20424;-80